»·PEaware :: N5219J KOTH-KEUG

N5219J :: KOTH-KEUG

FLIGHT INFORMATION

Flight Status: Arrived
Operator: Privately registered:
United States
More flights under this callsign
Pilot: Jone M. (10385)
Aircraft: CESSNA 172 SKYHAWK
(C172)
More flights by this aircraft type
Origin: KOTH North Bend Mun
United States
Destination: KEUG Mahlon Sweet
United States
More flights between these airports :: More routes between these airports
Route: 433207N1240045W 440021N1232258W
File this flight plan on PilotEdge
Remarks:
Altitude:
(Current/Filed)
3,500ft
Speed:
(Current/Filed)
125kts
Departed: 15-Oct-18 01:10 PM
Arrived: 15-Oct-18 01:45 PM
Distance/Time
Traveled:
61nm/0:34
Distance/Time
To Go:
Arrived

Flight Plot

Page will automatically refresh every two minutes.

Flight plan parsing failed; only flown route is shown


Map Options




Map Legend


Flown Route
Filed Route
Departure Airport
Arrival Airport
Navaid (VOR, NDB)
Fix

Horizontal Profiles

Position Reports

Time Latitude Longitude Heading Altitude Ground
Speed
15-Oct-18 13:00 43.414900 -124.245130 57 20ft 0kts
15-Oct-18 13:01 43.414900 -124.245130 57 20ft 0kts
15-Oct-18 13:02 43.414900 -124.245130 57 20ft 0kts
15-Oct-18 13:03 43.414900 -124.245130 57 20ft 0kts
15-Oct-18 13:04 43.414900 -124.245130 57 20ft 0kts
15-Oct-18 13:05 43.414900 -124.245130 57 20ft 0kts
15-Oct-18 13:06 43.414900 -124.245130 57 20ft 0kts
15-Oct-18 13:07 43.414900 -124.245130 57 20ft 0kts
15-Oct-18 13:08 43.415583 -124.244286 327 20ft 5kts
15-Oct-18 13:09 43.417995 -124.246214 328 20ft 13kts
15-Oct-18 13:10 43.419113 -124.246898 142 20ft 0kts
15-Oct-18 13:11 43.419154 -124.246704 60 20ft 4kts
15-Oct-18 13:12 43.412766 -124.240571 154 138ft 81kts
15-Oct-18 13:13 43.418877 -124.220440 30 1035ft 87kts
15-Oct-18 13:14 43.438474 -124.202009 50 1821ft 90kts
15-Oct-18 13:15 43.453900 -124.174361 52 2522ft 90kts
15-Oct-18 13:16 43.468513 -124.146861 53 3195ft 90kts
15-Oct-18 13:17 43.486809 -124.111602 54 3159ft 124kts
15-Oct-18 13:18 43.506060 -124.074196 54 3157ft 117kts
15-Oct-18 13:19 43.525030 -124.037304 54 3156ft 119kts
15-Oct-18 13:20 43.546131 -124.002393 44 3156ft 118kts
15-Oct-18 13:21 43.569901 -123.970578 43 3156ft 119kts
15-Oct-18 13:22 43.593700 -123.938872 43 3156ft 119kts
15-Oct-18 13:23 43.617581 -123.907072 43 3156ft 119kts
15-Oct-18 13:24 43.641369 -123.875375 43 3156ft 119kts
15-Oct-18 13:25 43.665231 -123.843546 43 3156ft 119kts
15-Oct-18 13:26 43.688905 -123.811933 43 3186ft 118kts
15-Oct-18 13:27 43.712425 -123.780488 43 3228ft 117kts
15-Oct-18 13:28 43.735885 -123.749086 43 3270ft 117kts
15-Oct-18 13:29 43.758987 -123.718126 43 3312ft 116kts
15-Oct-18 13:30 43.781880 -123.687073 44 3355ft 115kts
15-Oct-18 13:31 43.804018 -123.656319 43 3398ft 113kts
15-Oct-18 13:32 43.826275 -123.626270 42 3441ft 112kts
15-Oct-18 13:33 43.848297 -123.596653 42 3482ft 110kts
15-Oct-18 13:34 43.870402 -123.566904 42 3484ft 111kts
15-Oct-18 13:35 43.892563 -123.537046 42 3484ft 111kts
15-Oct-18 13:36 43.914749 -123.507129 42 3484ft 111kts
15-Oct-18 13:37 43.936927 -123.477181 42 3484ft 111kts
15-Oct-18 13:38 43.959004 -123.447339 42 3485ft 111kts
15-Oct-18 13:39 43.980516 -123.416651 50 3483ft 109kts
15-Oct-18 13:40 43.999857 -123.383808 47 3481ft 111kts
15-Oct-18 13:41 44.022434 -123.353572 38 3368ft 115kts
15-Oct-18 13:42 44.046984 -123.325367 58 3153ft 110kts
15-Oct-18 13:43 44.060886 -123.291345 47 2337ft 88kts
15-Oct-18 13:44 44.077655 -123.270222 40 1754ft 80kts
15-Oct-18 13:45 44.093343 -123.248380 52 1319ft 76kts
15-Oct-18 13:46 44.102781 -123.221647 33 851ft 66kts
15-Oct-18 13:47 44.115462 -123.218762 0 377ft 12kts
15-Oct-18 13:48 44.120888 -123.217200 126 377ft 13kts
15-Oct-18 13:49 44.116142 -123.216927 183 377ft 10kts
15-Oct-18 13:50 44.116564 -123.215839 37 377ft 2kts
15-Oct-18 13:51 44.116564 -123.215839 36 377ft 0kts

Navigation Log

Ident Type
Flight plan parsing failed, navigation log unavailable